sensor_id;sensor_type;location;lat;lon;timestamp;P1;durP1;ratioP1;P2;durP2;ratioP2
21729;SDS011;11027;51.030;13.812;2023-08-12T00:01:00;5.38;;;2.55;;
21729;SDS011;11027;51.030;13.812;2023-08-12T00:03:25;5.47;;;2.72;;
21729;SDS011;11027;51.030;13.812;2023-08-12T00:05:51;5.72;;;2.70;;
21729;SDS011;11027;51.030;13.812;2023-08-12T00:08:17;7.55;;;2.80;;
21729;SDS011;11027;51.030;13.812;2023-08-12T00:10:42;5.80;;;2.65;;
21729;SDS011;11027;51.030;13.812;2023-08-12T00:13:08;4.38;;;2.90;;
21729;SDS011;11027;51.030;13.812;2023-08-12T00:15:34;6.65;;;2.35;;
21729;SDS011;11027;51.030;13.812;2023-08-12T00:17:59;5.65;;;2.78;;
21729;SDS011;11027;51.030;13.812;2023-08-12T00:20:24;5.45;;;2.60;;
21729;SDS011;11027;51.030;13.812;2023-08-12T00:22:50;4.88;;;2.95;;
21729;SDS011;11027;51.030;13.812;2023-08-12T00:25:15;4.03;;;2.60;;
21729;SDS011;11027;51.030;13.812;2023-08-12T00:27:40;7.75;;;2.83;;
21729;SDS011;11027;51.030;13.812;2023-08-12T00:30:06;6.47;;;3.00;;
21729;SDS011;11027;51.030;13.812;2023-08-12T00:32:31;2.78;;;2.50;;
21729;SDS011;11027;51.030;13.812;2023-08-12T00:34:57;5.95;;;2.60;;
21729;SDS011;11027;51.030;13.812;2023-08-12T00:37:22;2.58;;;2.30;;
21729;SDS011;11027;51.030;13.812;2023-08-12T00:39:47;7.10;;;3.15;;
21729;SDS011;11027;51.030;13.812;2023-08-12T00:42:13;7.93;;;3.08;;
21729;SDS011;11027;51.030;13.812;2023-08-12T00:44:38;5.90;;;2.78;;
21729;SDS011;11027;51.030;13.812;2023-08-12T00:47:03;7.13;;;2.67;;
21729;SDS011;11027;51.030;13.812;2023-08-12T00:49:29;4.30;;;2.88;;
21729;SDS011;11027;51.030;13.812;2023-08-12T00:51:56;6.90;;;2.78;;
21729;SDS011;11027;51.030;13.812;2023-08-12T00:54:22;5.47;;;3.13;;
21729;SDS011;11027;51.030;13.812;2023-08-12T00:56:49;6.93;;;2.83;;
21729;SDS011;11027;51.030;13.812;2023-08-12T00:59:14;5.32;;;3.03;;
21729;SDS011;11027;51.030;13.812;2023-08-12T01:01:42;8.05;;;3.08;;
21729;SDS011;11027;51.030;13.812;2023-08-12T01:04:08;5.55;;;2.80;;
21729;SDS011;11027;51.030;13.812;2023-08-12T01:06:33;5.88;;;3.10;;
21729;SDS011;11027;51.030;13.812;2023-08-12T01:08:58;4.22;;;2.63;;
21729;SDS011;11027;51.030;13.812;2023-08-12T01:11:29;6.30;;;3.00;;
21729;SDS011;11027;51.030;13.812;2023-08-12T01:16:33;8.73;;;2.75;;
21729;SDS011;11027;51.030;13.812;2023-08-12T01:19:05;6.30;;;2.55;;
21729;SDS011;11027;51.030;13.812;2023-08-12T01:21:34;6.15;;;2.55;;
21729;SDS011;11027;51.030;13.812;2023-08-12T01:24:04;6.97;;;2.53;;
21729;SDS011;11027;51.030;13.812;2023-08-12T01:26:29;6.10;;;2.45;;
21729;SDS011;11027;51.030;13.812;2023-08-12T01:28:55;4.57;;;2.88;;
21729;SDS011;11027;51.030;13.812;2023-08-12T01:31:28;5.05;;;2.92;;
21729;SDS011;11027;51.030;13.812;2023-08-12T01:36:46;6.20;;;2.60;;
21729;SDS011;11027;51.030;13.812;2023-08-12T01:39:17;6.03;;;2.88;;
21729;SDS011;11027;51.030;13.812;2023-08-12T01:41:44;5.32;;;2.80;;
21729;SDS011;11027;51.030;13.812;2023-08-12T01:44:10;5.88;;;2.72;;
21729;SDS011;11027;51.030;13.812;2023-08-12T01:46:36;8.40;;;2.97;;
21729;SDS011;11027;51.030;13.812;2023-08-12T01:49:01;5.18;;;2.65;;
21729;SDS011;11027;51.030;13.812;2023-08-12T01:51:26;5.00;;;2.97;;
21729;SDS011;11027;51.030;13.812;2023-08-12T01:53:52;7.20;;;3.38;;
21729;SDS011;11027;51.030;13.812;2023-08-12T01:56:17;5.53;;;2.90;;
21729;SDS011;11027;51.030;13.812;2023-08-12T01:58:42;5.95;;;2.70;;
21729;SDS011;11027;51.030;13.812;2023-08-12T02:01:08;6.97;;;3.13;;
21729;SDS011;11027;51.030;13.812;2023-08-12T02:03:33;8.52;;;3.00;;
21729;SDS011;11027;51.030;13.812;2023-08-12T02:05:58;6.35;;;2.75;;
21729;SDS011;11027;51.030;13.812;2023-08-12T02:08:23;4.22;;;2.90;;
21729;SDS011;11027;51.030;13.812;2023-08-12T02:10:49;6.75;;;2.88;;
21729;SDS011;11027;51.030;13.812;2023-08-12T02:13:14;6.50;;;2.53;;
21729;SDS011;11027;51.030;13.812;2023-08-12T02:15:39;10.68;;;3.40;;
21729;SDS011;11027;51.030;13.812;2023-08-12T02:18:05;6.75;;;2.85;;
21729;SDS011;11027;51.030;13.812;2023-08-12T02:20:30;9.15;;;2.92;;
21729;SDS011;11027;51.030;13.812;2023-08-12T02:22:55;7.53;;;2.72;;
21729;SDS011;11027;51.030;13.812;2023-08-12T02:25:20;3.70;;;2.78;;
21729;SDS011;11027;51.030;13.812;2023-08-12T02:27:46;8.40;;;2.90;;
21729;SDS011;11027;51.030;13.812;2023-08-12T02:30:11;3.60;;;2.22;;
21729;SDS011;11027;51.030;13.812;2023-08-12T02:32:37;8.43;;;3.00;;
21729;SDS011;11027;51.030;13.812;2023-08-12T02:35:02;6.40;;;2.63;;
21729;SDS011;11027;51.030;13.812;2023-08-12T02:37:27;6.88;;;2.80;;
21729;SDS011;11027;51.030;13.812;2023-08-12T02:39:53;6.32;;;2.90;;
21729;SDS011;11027;51.030;13.812;2023-08-12T02:42:18;5.28;;;2.55;;
21729;SDS011;11027;51.030;13.812;2023-08-12T02:44:43;7.93;;;2.92;;
21729;SDS011;11027;51.030;13.812;2023-08-12T02:47:08;3.85;;;2.75;;
21729;SDS011;11027;51.030;13.812;2023-08-12T02:49:34;4.43;;;2.55;;
21729;SDS011;11027;51.030;13.812;2023-08-12T02:51:59;12.77;;;2.92;;
21729;SDS011;11027;51.030;13.812;2023-08-12T02:54:24;4.05;;;2.83;;
21729;SDS011;11027;51.030;13.812;2023-08-12T02:56:50;7.60;;;3.03;;
21729;SDS011;11027;51.030;13.812;2023-08-12T02:59:15;5.35;;;2.92;;
21729;SDS011;11027;51.030;13.812;2023-08-12T03:01:41;5.00;;;2.95;;
21729;SDS011;11027;51.030;13.812;2023-08-12T03:04:07;7.88;;;2.85;;
21729;SDS011;11027;51.030;13.812;2023-08-12T03:06:32;8.45;;;2.80;;
21729;SDS011;11027;51.030;13.812;2023-08-12T03:08:57;4.60;;;2.95;;
21729;SDS011;11027;51.030;13.812;2023-08-12T03:11:23;7.55;;;3.10;;
21729;SDS011;11027;51.030;13.812;2023-08-12T03:13:48;8.05;;;2.88;;
21729;SDS011;11027;51.030;13.812;2023-08-12T03:16:13;4.55;;;2.92;;
21729;SDS011;11027;51.030;13.812;2023-08-12T03:18:39;5.13;;;2.90;;
21729;SDS011;11027;51.030;13.812;2023-08-12T03:21:06;5.53;;;3.33;;
21729;SDS011;11027;51.030;13.812;2023-08-12T03:23:35;4.63;;;2.70;;
21729;SDS011;11027;51.030;13.812;2023-08-12T03:26:01;4.60;;;2.88;;
21729;SDS011;11027;51.030;13.812;2023-08-12T03:28:27;4.88;;;2.85;;
21729;SDS011;11027;51.030;13.812;2023-08-12T03:30:52;8.63;;;3.10;;
21729;SDS011;11027;51.030;13.812;2023-08-12T03:33:18;10.02;;;4.03;;
21729;SDS011;11027;51.030;13.812;2023-08-12T03:35:47;10.82;;;4.55;;
21729;SDS011;11027;51.030;13.812;2023-08-12T03:38:13;9.23;;;3.85;;
21729;SDS011;11027;51.030;13.812;2023-08-12T03:40:39;7.97;;;3.30;;
21729;SDS011;11027;51.030;13.812;2023-08-12T03:43:05;7.78;;;2.72;;
21729;SDS011;11027;51.030;13.812;2023-08-12T03:45:30;3.83;;;2.75;;
21729;SDS011;11027;51.030;13.812;2023-08-12T03:47:55;6.10;;;2.85;;
21729;SDS011;11027;51.030;13.812;2023-08-12T03:50:21;3.95;;;2.85;;
21729;SDS011;11027;51.030;13.812;2023-08-12T03:52:46;7.18;;;3.20;;
21729;SDS011;11027;51.030;13.812;2023-08-12T03:55:11;10.68;;;2.88;;
21729;SDS011;11027;51.030;13.812;2023-08-12T03:57:37;5.35;;;2.67;;
21729;SDS011;11027;51.030;13.812;2023-08-12T04:00:02;6.88;;;2.90;;
21729;SDS011;11027;51.030;13.812;2023-08-12T04:02:29;4.88;;;2.85;;
21729;SDS011;11027;51.030;13.812;2023-08-12T04:04:54;6.72;;;2.60;;
21729;SDS011;11027;51.030;13.812;2023-08-12T04:07:19;5.65;;;2.90;;
21729;SDS011;11027;51.030;13.812;2023-08-12T04:09:45;4.55;;;2.95;;
21729;SDS011;11027;51.030;13.812;2023-08-12T04:12:10;6.90;;;3.10;;
21729;SDS011;11027;51.030;13.812;2023-08-12T04:14:35;6.72;;;2.70;;
21729;SDS011;11027;51.030;13.812;2023-08-12T04:17:00;5.25;;;3.05;;
21729;SDS011;11027;51.030;13.812;2023-08-12T04:19:26;5.50;;;2.90;;
21729;SDS011;11027;51.030;13.812;2023-08-12T04:21:51;7.88;;;2.90;;
21729;SDS011;11027;51.030;13.812;2023-08-12T04:24:16;6.25;;;2.70;;
21729;SDS011;11027;51.030;13.812;2023-08-12T04:26:42;6.30;;;2.67;;
21729;SDS011;11027;51.030;13.812;2023-08-12T04:29:07;7.15;;;2.78;;
21729;SDS011;11027;51.030;13.812;2023-08-12T04:31:32;3.20;;;2.40;;
21729;SDS011;11027;51.030;13.812;2023-08-12T04:33:58;4.97;;;2.67;;
21729;SDS011;11027;51.030;13.812;2023-08-12T04:36:23;2.90;;;2.38;;
21729;SDS011;11027;51.030;13.812;2023-08-12T04:38:48;5.07;;;2.70;;
21729;SDS011;11027;51.030;13.812;2023-08-12T04:41:14;6.90;;;2.67;;
21729;SDS011;11027;51.030;13.812;2023-08-12T04:43:40;4.97;;;2.50;;
21729;SDS011;11027;51.030;13.812;2023-08-12T04:46:06;4.32;;;2.45;;
21729;SDS011;11027;51.030;13.812;2023-08-12T04:48:31;5.25;;;2.53;;
21729;SDS011;11027;51.030;13.812;2023-08-12T04:50:56;6.32;;;2.95;;
21729;SDS011;11027;51.030;13.812;2023-08-12T04:53:25;6.07;;;2.47;;
21729;SDS011;11027;51.030;13.812;2023-08-12T04:55:50;10.48;;;2.67;;
21729;SDS011;11027;51.030;13.812;2023-08-12T04:58:16;8.77;;;2.65;;
21729;SDS011;11027;51.030;13.812;2023-08-12T05:00:42;4.28;;;2.45;;
21729;SDS011;11027;51.030;13.812;2023-08-12T05:03:07;8.82;;;2.53;;
21729;SDS011;11027;51.030;13.812;2023-08-12T05:05:32;7.88;;;2.35;;
21729;SDS011;11027;51.030;13.812;2023-08-12T05:07:57;8.23;;;3.28;;
21729;SDS011;11027;51.030;13.812;2023-08-12T05:10:23;8.15;;;2.88;;
21729;SDS011;11027;51.030;13.812;2023-08-12T05:12:48;4.28;;;2.47;;
21729;SDS011;11027;51.030;13.812;2023-08-12T05:15:15;4.78;;;2.33;;
21729;SDS011;11027;51.030;13.812;2023-08-12T05:17:40;6.38;;;2.53;;
21729;SDS011;11027;51.030;13.812;2023-08-12T05:20:06;4.22;;;2.53;;
21729;SDS011;11027;51.030;13.812;2023-08-12T05:22:32;3.35;;;2.40;;
21729;SDS011;11027;51.030;13.812;2023-08-12T05:24:57;6.68;;;2.70;;
21729;SDS011;11027;51.030;13.812;2023-08-12T05:27:22;7.18;;;2.50;;
21729;SDS011;11027;51.030;13.812;2023-08-12T05:29:47;3.92;;;2.55;;
21729;SDS011;11027;51.030;13.812;2023-08-12T05:32:13;9.52;;;2.60;;
21729;SDS011;11027;51.030;13.812;2023-08-12T05:34:38;5.75;;;2.70;;
21729;SDS011;11027;51.030;13.812;2023-08-12T05:37:03;4.30;;;2.25;;
21729;SDS011;11027;51.030;13.812;2023-08-12T05:39:28;2.67;;;2.38;;
21729;SDS011;11027;51.030;13.812;2023-08-12T05:41:54;3.92;;;2.47;;
21729;SDS011;11027;51.030;13.812;2023-08-12T05:44:19;5.00;;;2.47;;
21729;SDS011;11027;51.030;13.812;2023-08-12T05:46:44;7.75;;;2.78;;
21729;SDS011;11027;51.030;13.812;2023-08-12T05:49:09;8.32;;;2.40;;
21729;SDS011;11027;51.030;13.812;2023-08-12T05:51:35;7.82;;;2.58;;
21729;SDS011;11027;51.030;13.812;2023-08-12T05:54:00;7.00;;;2.53;;
21729;SDS011;11027;51.030;13.812;2023-08-12T05:56:26;6.43;;;2.60;;
21729;SDS011;11027;51.030;13.812;2023-08-12T05:58:51;6.68;;;2.58;;
21729;SDS011;11027;51.030;13.812;2023-08-12T06:01:16;3.67;;;2.50;;
21729;SDS011;11027;51.030;13.812;2023-08-12T06:03:43;5.38;;;2.58;;
21729;SDS011;11027;51.030;13.812;2023-08-12T06:06:08;4.82;;;2.42;;
21729;SDS011;11027;51.030;13.812;2023-08-12T06:08:33;3.97;;;2.72;;
21729;SDS011;11027;51.030;13.812;2023-08-12T06:10:59;9.00;;;2.67;;
21729;SDS011;11027;51.030;13.812;2023-08-12T06:13:24;4.07;;;2.22;;
21729;SDS011;11027;51.030;13.812;2023-08-12T06:15:49;3.95;;;2.35;;
21729;SDS011;11027;51.030;13.812;2023-08-12T06:18:15;7.63;;;2.42;;
21729;SDS011;11027;51.030;13.812;2023-08-12T06:20:40;3.15;;;2.28;;
21729;SDS011;11027;51.030;13.812;2023-08-12T06:23:05;4.55;;;2.58;;
21729;SDS011;11027;51.030;13.812;2023-08-12T06:25:31;4.05;;;2.53;;
21729;SDS011;11027;51.030;13.812;2023-08-12T06:27:56;5.78;;;2.50;;
21729;SDS011;11027;51.030;13.812;2023-08-12T06:30:23;10.85;;;2.70;;
21729;SDS011;11027;51.030;13.812;2023-08-12T06:32:48;6.55;;;2.50;;
21729;SDS011;11027;51.030;13.812;2023-08-12T06:35:14;4.43;;;2.10;;
21729;SDS011;11027;51.030;13.812;2023-08-12T06:37:39;8.95;;;2.58;;
21729;SDS011;11027;51.030;13.812;2023-08-12T06:40:05;3.78;;;2.40;;
21729;SDS011;11027;51.030;13.812;2023-08-12T06:42:31;6.90;;;2.22;;
21729;SDS011;11027;51.030;13.812;2023-08-12T06:44:57;4.57;;;2.67;;
21729;SDS011;11027;51.030;13.812;2023-08-12T06:47:23;5.45;;;2.53;;
21729;SDS011;11027;51.030;13.812;2023-08-12T06:49:49;4.53;;;2.50;;
21729;SDS011;11027;51.030;13.812;2023-08-12T06:52:14;3.72;;;2.45;;
21729;SDS011;11027;51.030;13.812;2023-08-12T06:54:41;4.20;;;2.78;;
21729;SDS011;11027;51.030;13.812;2023-08-12T06:57:06;5.07;;;2.75;;
21729;SDS011;11027;51.030;13.812;2023-08-12T06:59:31;3.45;;;2.90;;
21729;SDS011;11027;51.030;13.812;2023-08-12T07:01:56;5.28;;;2.28;;
21729;SDS011;11027;51.030;13.812;2023-08-12T07:04:22;9.15;;;3.00;;
21729;SDS011;11027;51.030;13.812;2023-08-12T07:06:47;5.57;;;2.53;;
21729;SDS011;11027;51.030;13.812;2023-08-12T07:09:13;3.78;;;2.40;;
21729;SDS011;11027;51.030;13.812;2023-08-12T07:11:38;4.43;;;2.75;;
21729;SDS011;11027;51.030;13.812;2023-08-12T07:14:03;3.17;;;2.50;;
21729;SDS011;11027;51.030;13.812;2023-08-12T07:16:29;4.63;;;2.72;;
21729;SDS011;11027;51.030;13.812;2023-08-12T07:18:54;5.28;;;2.78;;
21729;SDS011;11027;51.030;13.812;2023-08-12T07:21:20;5.53;;;2.60;;
21729;SDS011;11027;51.030;13.812;2023-08-12T07:23:45;4.80;;;2.58;;
21729;SDS011;11027;51.030;13.812;2023-08-12T07:26:10;4.10;;;2.70;;
21729;SDS011;11027;51.030;13.812;2023-08-12T07:28:35;2.92;;;2.60;;
21729;SDS011;11027;51.030;13.812;2023-08-12T07:31:01;6.10;;;2.50;;
21729;SDS011;11027;51.030;13.812;2023-08-12T07:33:26;3.13;;;2.35;;
21729;SDS011;11027;51.030;13.812;2023-08-12T07:35:52;6.85;;;2.70;;
21729;SDS011;11027;51.030;13.812;2023-08-12T07:38:17;5.25;;;2.75;;
21729;SDS011;11027;51.030;13.812;2023-08-12T07:40:42;2.88;;;2.40;;
21729;SDS011;11027;51.030;13.812;2023-08-12T07:43:08;6.15;;;2.70;;
21729;SDS011;11027;51.030;13.812;2023-08-12T07:45:33;7.05;;;2.50;;
21729;SDS011;11027;51.030;13.812;2023-08-12T07:47:58;8.30;;;2.90;;
21729;SDS011;11027;51.030;13.812;2023-08-12T07:50:24;3.63;;;2.53;;
21729;SDS011;11027;51.030;13.812;2023-08-12T07:52:49;3.65;;;2.47;;
21729;SDS011;11027;51.030;13.812;2023-08-12T07:55:15;5.25;;;3.00;;
21729;SDS011;11027;51.030;13.812;2023-08-12T07:57:40;3.92;;;2.92;;
21729;SDS011;11027;51.030;13.812;2023-08-12T08:00:06;5.50;;;2.90;;
21729;SDS011;11027;51.030;13.812;2023-08-12T08:02:33;8.13;;;3.05;;
21729;SDS011;11027;51.030;13.812;2023-08-12T08:04:58;5.50;;;2.55;;
21729;SDS011;11027;51.030;13.812;2023-08-12T08:07:23;7.57;;;2.60;;
21729;SDS011;11027;51.030;13.812;2023-08-12T08:09:48;5.63;;;2.50;;
21729;SDS011;11027;51.030;13.812;2023-08-12T08:12:16;5.97;;;2.65;;
21729;SDS011;11027;51.030;13.812;2023-08-12T08:14:41;7.60;;;2.42;;
21729;SDS011;11027;51.030;13.812;2023-08-12T08:17:10;2.90;;;2.30;;
21729;SDS011;11027;51.030;13.812;2023-08-12T08:19:42;3.22;;;2.92;;
21729;SDS011;11027;51.030;13.812;2023-08-12T08:22:07;4.70;;;2.67;;
21729;SDS011;11027;51.030;13.812;2023-08-12T08:24:33;5.38;;;2.40;;
21729;SDS011;11027;51.030;13.812;2023-08-12T08:26:58;4.50;;;2.40;;
21729;SDS011;11027;51.030;13.812;2023-08-12T08:29:23;4.28;;;2.20;;
21729;SDS011;11027;51.030;13.812;2023-08-12T08:31:49;3.15;;;2.40;;
21729;SDS011;11027;51.030;13.812;2023-08-12T08:34:14;5.28;;;2.38;;
21729;SDS011;11027;51.030;13.812;2023-08-12T08:36:40;7.55;;;2.50;;
21729;SDS011;11027;51.030;13.812;2023-08-12T08:39:05;3.47;;;2.58;;
21729;SDS011;11027;51.030;13.812;2023-08-12T08:41:31;6.57;;;2.20;;
21729;SDS011;11027;51.030;13.812;2023-08-12T08:43:59;6.13;;;2.75;;
21729;SDS011;11027;51.030;13.812;2023-08-12T08:46:30;4.32;;;2.55;;
21729;SDS011;11027;51.030;13.812;2023-08-12T08:48:56;6.68;;;2.33;;
21729;SDS011;11027;51.030;13.812;2023-08-12T08:51:24;5.80;;;2.50;;
21729;SDS011;11027;51.030;13.812;2023-08-12T08:53:49;2.95;;;2.70;;
21729;SDS011;11027;51.030;13.812;2023-08-12T08:56:16;5.72;;;3.28;;
21729;SDS011;11027;51.030;13.812;2023-08-12T08:58:42;5.88;;;2.80;;
21729;SDS011;11027;51.030;13.812;2023-08-12T09:01:07;4.72;;;3.08;;
21729;SDS011;11027;51.030;13.812;2023-08-12T09:03:35;6.40;;;3.13;;
21729;SDS011;11027;51.030;13.812;2023-08-12T09:06:02;5.55;;;2.40;;
21729;SDS011;11027;51.030;13.812;2023-08-12T09:08:28;12.45;;;3.33;;
21729;SDS011;11027;51.030;13.812;2023-08-12T09:10:56;5.10;;;1.95;;
21729;SDS011;11027;51.030;13.812;2023-08-12T09:13:25;7.50;;;2.70;;
21729;SDS011;11027;51.030;13.812;2023-08-12T09:15:50;4.28;;;2.47;;
21729;SDS011;11027;51.030;13.812;2023-08-12T09:18:16;3.58;;;2.83;;
21729;SDS011;11027;51.030;13.812;2023-08-12T09:20:42;4.10;;;2.13;;
21729;SDS011;11027;51.030;13.812;2023-08-12T09:23:08;3.72;;;2.35;;
21729;SDS011;11027;51.030;13.812;2023-08-12T09:25:35;5.35;;;2.55;;
21729;SDS011;11027;51.030;13.812;2023-08-12T09:28:07;5.68;;;2.20;;
21729;SDS011;11027;51.030;13.812;2023-08-12T09:30:34;5.00;;;2.72;;
21729;SDS011;11027;51.030;13.812;2023-08-12T09:33:00;3.38;;;2.35;;
21729;SDS011;11027;51.030;13.812;2023-08-12T09:35:37;5.97;;;2.92;;
21729;SDS011;11027;51.030;13.812;2023-08-12T09:38:06;3.45;;;2.78;;
21729;SDS011;11027;51.030;13.812;2023-08-12T09:40:38;5.13;;;2.00;;
21729;SDS011;11027;51.030;13.812;2023-08-12T09:43:03;4.55;;;2.88;;
21729;SDS011;11027;51.030;13.812;2023-08-12T09:45:30;4.50;;;4.07;;
21729;SDS011;11027;51.030;13.812;2023-08-12T09:47:56;3.40;;;2.90;;
21729;SDS011;11027;51.030;13.812;2023-08-12T09:50:22;5.13;;;2.67;;
21729;SDS011;11027;51.030;13.812;2023-08-12T09:52:49;2.92;;;1.60;;
21729;SDS011;11027;51.030;13.812;2023-08-12T09:55:18;2.85;;;1.80;;
21729;SDS011;11027;51.030;13.812;2023-08-12T09:57:46;3.85;;;1.60;;
21729;SDS011;11027;51.030;13.812;2023-08-12T10:00:13;2.78;;;1.30;;
21729;SDS011;11027;51.030;13.812;2023-08-12T10:02:43;1.98;;;1.20;;
21729;SDS011;11027;51.030;13.812;2023-08-12T10:05:12;1.63;;;1.40;;
21729;SDS011;11027;51.030;13.812;2023-08-12T10:07:43;3.10;;;2.20;;
21729;SDS011;11027;51.030;13.812;2023-08-12T10:10:10;2.28;;;1.50;;
21729;SDS011;11027;51.030;13.812;2023-08-12T10:12:38;4.00;;;1.17;;
21729;SDS011;11027;51.030;13.812;2023-08-12T10:15:04;1.73;;;1.20;;
21729;SDS011;11027;51.030;13.812;2023-08-12T10:17:30;1.27;;;1.17;;
21729;SDS011;11027;51.030;13.812;2023-08-12T10:19:57;2.45;;;1.10;;
21729;SDS011;11027;51.030;13.812;2023-08-12T10:22:23;3.58;;;1.40;;
21729;SDS011;11027;51.030;13.812;2023-08-12T10:24:50;1.88;;;1.10;;
21729;SDS011;11027;51.030;13.812;2023-08-12T10:27:16;1.95;;;1.08;;
21729;SDS011;11027;51.030;13.812;2023-08-12T10:29:42;2.47;;;1.15;;
21729;SDS011;11027;51.030;13.812;2023-08-12T10:32:08;2.53;;;1.60;;
21729;SDS011;11027;51.030;13.812;2023-08-12T10:34:34;5.10;;;1.20;;
21729;SDS011;11027;51.030;13.812;2023-08-12T10:37:02;1.33;;;1.23;;
21729;SDS011;11027;51.030;13.812;2023-08-12T10:39:28;3.25;;;1.40;;
21729;SDS011;11027;51.030;13.812;2023-08-12T10:41:54;2.67;;;1.00;;
21729;SDS011;11027;51.030;13.812;2023-08-12T10:44:20;1.30;;;1.20;;
21729;SDS011;11027;51.030;13.812;2023-08-12T10:46:50;3.53;;;1.30;;
21729;SDS011;11027;51.030;13.812;2023-08-12T10:49:18;2.80;;;1.38;;
21729;SDS011;11027;51.030;13.812;2023-08-12T10:51:51;2.15;;;1.95;;
21729;SDS011;11027;51.030;13.812;2023-08-12T11:02:16;1.77;;;1.45;;
21729;SDS011;11027;51.030;13.812;2023-08-12T11:04:42;1.40;;;1.30;;
21729;SDS011;11027;51.030;13.812;2023-08-12T11:07:20;2.00;;;1.30;;
21729;SDS011;11027;51.030;13.812;2023-08-12T11:12:33;2.40;;;1.60;;
21729;SDS011;11027;51.030;13.812;2023-08-12T11:14:59;2.25;;;1.40;;
21729;SDS011;11027;51.030;13.812;2023-08-12T11:17:29;1.88;;;1.20;;
21729;SDS011;11027;51.030;13.812;2023-08-12T11:20:14;3.33;;;1.50;;
21729;SDS011;11027;51.030;13.812;2023-08-12T11:22:40;3.35;;;1.25;;
21729;SDS011;11027;51.030;13.812;2023-08-12T11:25:07;3.35;;;1.58;;
21729;SDS011;11027;51.030;13.812;2023-08-12T11:27:36;2.90;;;1.50;;
21729;SDS011;11027;51.030;13.812;2023-08-12T11:30:13;4.65;;;1.70;;
21729;SDS011;11027;51.030;13.812;2023-08-12T11:32:40;1.80;;;1.70;;
21729;SDS011;11027;51.030;13.812;2023-08-12T11:35:07;1.95;;;1.52;;
21729;SDS011;11027;51.030;13.812;2023-08-12T11:37:35;4.05;;;1.50;;
21729;SDS011;11027;51.030;13.812;2023-08-12T11:40:01;2.03;;;1.40;;
21729;SDS011;11027;51.030;13.812;2023-08-12T11:42:28;1.77;;;1.40;;
21729;SDS011;11027;51.030;13.812;2023-08-12T11:44:53;2.25;;;1.40;;
21729;SDS011;11027;51.030;13.812;2023-08-12T11:47:19;2.17;;;1.65;;
21729;SDS011;11027;51.030;13.812;2023-08-12T11:49:44;3.20;;;1.50;;
21729;SDS011;11027;51.030;13.812;2023-08-12T11:52:09;1.77;;;1.60;;
21729;SDS011;11027;51.030;13.812;2023-08-12T11:54:36;6.35;;;1.75;;
21729;SDS011;11027;51.030;13.812;2023-08-12T11:57:02;6.18;;;1.48;;
21729;SDS011;11027;51.030;13.812;2023-08-12T11:59:27;1.83;;;1.58;;
21729;SDS011;11027;51.030;13.812;2023-08-12T12:01:54;4.93;;;1.70;;
21729;SDS011;11027;51.030;13.812;2023-08-12T12:04:20;1.58;;;1.48;;
21729;SDS011;11027;51.030;13.812;2023-08-12T12:06:46;2.20;;;1.60;;
21729;SDS011;11027;51.030;13.812;2023-08-12T12:09:12;2.85;;;1.70;;
21729;SDS011;11027;51.030;13.812;2023-08-12T12:11:39;4.10;;;1.58;;
21729;SDS011;11027;51.030;13.812;2023-08-12T12:14:05;2.08;;;1.58;;
21729;SDS011;11027;51.030;13.812;2023-08-12T12:19:09;4.95;;;1.98;;
21729;SDS011;11027;51.030;13.812;2023-08-12T12:21:39;3.03;;;1.83;;
21729;SDS011;11027;51.030;13.812;2023-08-12T12:24:06;2.95;;;1.67;;
21729;SDS011;11027;51.030;13.812;2023-08-12T12:26:32;4.38;;;1.95;;
21729;SDS011;11027;51.030;13.812;2023-08-12T12:28:57;4.45;;;1.90;;
21729;SDS011;11027;51.030;13.812;2023-08-12T12:31:22;2.58;;;1.90;;
21729;SDS011;11027;51.030;13.812;2023-08-12T12:33:48;2.95;;;1.90;;
21729;SDS011;11027;51.030;13.812;2023-08-12T12:36:13;5.35;;;1.90;;
21729;SDS011;11027;51.030;13.812;2023-08-12T12:38:38;5.43;;;2.20;;
21729;SDS011;11027;51.030;13.812;2023-08-12T12:41:03;4.32;;;1.90;;
21729;SDS011;11027;51.030;13.812;2023-08-12T12:43:29;5.47;;;2.30;;
21729;SDS011;11027;51.030;13.812;2023-08-12T12:45:54;5.10;;;1.70;;
21729;SDS011;11027;51.030;13.812;2023-08-12T12:48:19;5.75;;;2.00;;
21729;SDS011;11027;51.030;13.812;2023-08-12T12:50:44;5.30;;;2.03;;
21729;SDS011;11027;51.030;13.812;2023-08-12T12:53:10;5.25;;;1.90;;
21729;SDS011;11027;51.030;13.812;2023-08-12T12:55:35;3.28;;;1.90;;
21729;SDS011;11027;51.030;13.812;2023-08-12T12:58:01;5.20;;;2.20;;
21729;SDS011;11027;51.030;13.812;2023-08-12T13:00:26;4.68;;;2.00;;
21729;SDS011;11027;51.030;13.812;2023-08-12T13:02:51;6.82;;;2.08;;
21729;SDS011;11027;51.030;13.812;2023-08-12T13:05:16;5.20;;;2.25;;
21729;SDS011;11027;51.030;13.812;2023-08-12T13:07:42;8.48;;;2.25;;
21729;SDS011;11027;51.030;13.812;2023-08-12T13:10:08;4.65;;;2.13;;
21729;SDS011;11027;51.030;13.812;2023-08-12T13:12:33;5.45;;;2.20;;
21729;SDS011;11027;51.030;13.812;2023-08-12T13:14:59;5.53;;;2.17;;
21729;SDS011;11027;51.030;13.812;2023-08-12T13:17:24;5.07;;;2.00;;
21729;SDS011;11027;51.030;13.812;2023-08-12T13:19:49;3.22;;;2.08;;
21729;SDS011;11027;51.030;13.812;2023-08-12T13:22:14;5.28;;;2.08;;
21729;SDS011;11027;51.030;13.812;2023-08-12T13:24:40;2.17;;;1.98;;
21729;SDS011;11027;51.030;13.812;2023-08-12T13:27:05;3.97;;;1.92;;
21729;SDS011;11027;51.030;13.812;2023-08-12T13:29:32;3.13;;;2.35;;
21729;SDS011;11027;51.030;13.812;2023-08-12T13:31:58;5.68;;;2.10;;
21729;SDS011;11027;51.030;13.812;2023-08-12T13:34:23;5.72;;;2.20;;
21729;SDS011;11027;51.030;13.812;2023-08-12T13:36:48;3.67;;;2.10;;
21729;SDS011;11027;51.030;13.812;2023-08-12T13:39:14;4.90;;;2.10;;
21729;SDS011;11027;51.030;13.812;2023-08-12T13:41:39;5.90;;;2.40;;
21729;SDS011;11027;51.030;13.812;2023-08-12T13:44:04;5.85;;;2.83;;
21729;SDS011;11027;51.030;13.812;2023-08-12T13:46:30;3.70;;;2.33;;
21729;SDS011;11027;51.030;13.812;2023-08-12T13:48:55;3.58;;;2.75;;
21729;SDS011;11027;51.030;13.812;2023-08-12T13:51:20;6.80;;;2.58;;
21729;SDS011;11027;51.030;13.812;2023-08-12T13:53:45;3.72;;;2.42;;
21729;SDS011;11027;51.030;13.812;2023-08-12T13:56:11;2.35;;;2.15;;
21729;SDS011;11027;51.030;13.812;2023-08-12T13:58:36;5.20;;;2.58;;
21729;SDS011;11027;51.030;13.812;2023-08-12T14:01:02;3.55;;;2.00;;
21729;SDS011;11027;51.030;13.812;2023-08-12T14:03:27;4.95;;;2.50;;
21729;SDS011;11027;51.030;13.812;2023-08-12T14:05:53;3.40;;;2.47;;
21729;SDS011;11027;51.030;13.812;2023-08-12T14:08:18;5.68;;;2.60;;
21729;SDS011;11027;51.030;13.812;2023-08-12T14:10:45;4.95;;;2.33;;
21729;SDS011;11027;51.030;13.812;2023-08-12T14:13:11;3.47;;;2.10;;
21729;SDS011;11027;51.030;13.812;2023-08-12T14:15:36;5.93;;;2.40;;
21729;SDS011;11027;51.030;13.812;2023-08-12T14:18:01;5.75;;;2.35;;
21729;SDS011;11027;51.030;13.812;2023-08-12T14:20:27;4.15;;;2.00;;
21729;SDS011;11027;51.030;13.812;2023-08-12T14:22:52;6.97;;;2.38;;
21729;SDS011;11027;51.030;13.812;2023-08-12T14:25:18;6.40;;;2.05;;
21729;SDS011;11027;51.030;13.812;2023-08-12T14:27:43;4.57;;;2.08;;
21729;SDS011;11027;51.030;13.812;2023-08-12T14:30:08;3.88;;;1.98;;
21729;SDS011;11027;51.030;13.812;2023-08-12T14:32:34;7.30;;;1.75;;
21729;SDS011;11027;51.030;13.812;2023-08-12T14:34:59;6.20;;;2.40;;
21729;SDS011;11027;51.030;13.812;2023-08-12T14:37:25;6.15;;;1.70;;
21729;SDS011;11027;51.030;13.812;2023-08-12T14:39:52;4.03;;;1.92;;
21729;SDS011;11027;51.030;13.812;2023-08-12T14:42:17;6.88;;;1.90;;
21729;SDS011;11027;51.030;13.812;2023-08-12T14:44:43;5.28;;;2.00;;